• Join FlightAware (Why Join?)
  • Login
  • US Flag 
12:10PM EDT


 

Airport Tracker/Info


-or-


 

Live Flight TrackerFlight Track Log ✈ N799GK ✈ 14-May-2013 ✈ KAUS - KDTO

Flight Track Log - Related Links

Times and Time Zones

All times are in EDT time to prevent confusion due to time zone crossing. See the N799GK flight status page for this flight to view local times or setup timezone preferences in your user account.

Time Position Orientation Groundspeed Altitude Reporting Facility
EDT Latitude Longitude Course Direction KTS MPH feet Rate Location/Type
10:23PM 30.1542 -97.6886 337° Northwest 132 152 2,800  Level Houston Center
10:24PM 30.1800 -97.7308 305° West 166 191 4,000 1,140 Climbing Houston Center
10:25PM 30.2189 -97.7653 323° Northwest 172 198 5,200 1,140 Climbing Houston Center
10:26PM 30.2689 -97.7686 357° North 175 201 6,400 1,020 Climbing Houston Center
10:27PM 30.3189 -97.7819 347° North 180 207 7,300 960 Climbing Houston Center
10:28PM 30.4409 -97.7871 337° Northwest  Level FlightAware Approximate
10:28PM 30.3661 -97.8072 335° Northwest 182 209 8,400  Level Houston Center
10:29PM 30.4092 -97.8372 329° Northwest 180 207 9,700 1,080 Climbing Houston Center
10:30PM 30.4575 -97.8469 350° North 176 203 10,600 840 Climbing Houston Center
10:31PM 30.5031 -97.8672 339° North 173 199 11,500 780 Climbing Houston Center
10:32PM 30.5511 -97.8858 342° North 178 205 12,300 780 Climbing Houston Center
10:33PM 30.6000 -97.9047 342° North 182 209 13,100 720 Climbing Houston Center
10:34PM 30.6481 -97.9289 337° Northwest 183 211 13,800 660 Climbing Houston Center
10:35PM 30.6989 -97.9478 342° North 187 215 14,500 780 Climbing Houston Center
10:36PM 30.7483 -97.9667 342° North 185 213 15,400 780 Climbing Houston Center
10:37PM 30.8081 -97.9831 347° North 185 213 16,100 600 Climbing Houston Center
10:38PM 30.8603 -97.9989 345° North 190 219 16,700 540 Climbing Houston Center
10:38PM 30.8758 -98.0064 338° Northwest 190 219 16,900 300 Climbing Fort Worth Center
10:39PM 30.9278 -98.0283 340° North 191 220 17,100 60 Climbing Fort Worth Center
10:40PM 30.9736 -98.0553 333° Northwest 191 220 17,100  Level Fort Worth Center
10:41PM 31.0319 -98.0728 346° North 208 239 17,100 -60 Level Fort Worth Center
10:42PM 31.0967 -98.0878 349° North 221 254 17,000 -60 Descending Fort Worth Center
10:43PM 31.1528 -98.1125 339° North 221 254 17,000  Level Fort Worth Center
10:44PM 31.2092 -98.1394 338° Northwest 221 254 17,000  Level Fort Worth Center
10:45PM 31.2758 -98.1425 358° North 211 243 17,100 180 Climbing Fort Worth Center
10:46PM 31.3367 -98.1114 24° Northeast 218 251 17,400 720 Climbing Fort Worth Center
10:47PM 31.3847 -98.0825 27° Northeast 212 244 18,600 780 Climbing Fort Worth Center
10:48PM 31.4350 -98.0633 18° North 189 217 19,000 180 Climbing Fort Worth Center
10:49PM 31.4936 -98.0517 10° North 201 231 19,000  Level Fort Worth Center
10:50PM 31.5603 -98.0278 17° North 228 262 19,000  Level Fort Worth Center
10:51PM 31.6253 -98.0086 14° North 233 268 19,000 -540 Level Fort Worth Center
10:52PM 31.6922 -97.9822 19° North 243 280 18,000 -1,020 Descending Fort Worth Center
10:53PM 31.7592 -97.9558 19° North 263 303 17,000 -1,440 Descending Fort Worth Center
10:54PM 31.8364 -97.9294 16° North 272 313 15,200 -1,740 Descending Fort Worth Center
10:55PM 31.9075 -97.9053 16° North 272 313 13,600 -1,620 Descending Fort Worth Center
10:56PM 31.9806 -97.8886 11° North 246 283 12,000 -1,260 Descending Fort Worth Center
10:57PM 32.0372 -97.8667 18° North 236 272 11,100 -1,140 Descending Fort Worth Center
10:58PM 32.1061 -97.8425 17° North 236 272 9,800 -1,320 Descending Fort Worth Center
10:59PM 32.1689 -97.8233 14° North 241 277 8,500 -1,200 Descending Fort Worth Center
11:00PM 32.2419 -97.7989 16° North 241 277 7,500 -900 Descending Fort Worth Center
11:01PM 32.3006 -97.7797 15° North 241 277 6,700 -840 Descending Fort Worth Center
11:02PM 32.3675 -97.7481 22° Northeast 241 277 5,900 -780 Descending Fort Worth Center
11:03PM 32.4197 -97.7014 37° Northeast 234 269 5,200 -420 Descending Fort Worth Center
11:04PM 32.4719 -97.6597 34° Northeast 234 269 5,100 -60 Descending Fort Worth Center
11:05PM 32.5283 -97.6278 26° Northeast 221 254 5,100  Level Fort Worth Center
11:06PM 32.5828 -97.5958 26° Northeast 216 249 5,100  Level Fort Worth Center
11:07PM 32.6350 -97.5614 29° Northeast 216 249 5,100  Level Fort Worth Center
11:08PM 32.6872 -97.5269 29° Northeast 216 249 5,100 -300 Level Fort Worth Center
11:09PM 32.7436 -97.4900 29° Northeast 221 254 4,500 -420 Descending Fort Worth Center
11:10PM 32.8000 -97.4506 30° Northeast 226 260 4,300 -240 Descending Fort Worth Center
11:11PM 32.8542 -97.4333 15° North 219 252 4,100 -120 Descending Fort Worth Center
11:12PM 32.9106 -97.3911 32° Northeast 212 244 4,100  Level Fort Worth Center
11:13PM 32.9586 -97.3564 31° Northeast 212 244 4,100  Level Fort Worth Center
11:14PM 33.0233 -97.3367 14° North 212 244 4,100  Level Fort Worth Center
11:16PM 33.1500 -97.2833 19° North 221 254 4,100  Level Dallas / Fort Worth TRACON